CheckWX is a tool to help pilots better visualize weather data.  It is not intended as a substitute for an official pre-flight weather briefing.

23:54:11 UTC

KSRQ TAF
Sarasota / Bradenton International Airport
Sarasota/Bradenton, Florida, USA
KSRQ 182331Z 1900/1924 11008KT P6SM RA VCTS SCT025CB BKN050 OVC120 FM190600 14012G20KT 5SM RA VCTS BKN025CB OVC050 FM191400 20015G25KT P6SM VCTS BKN025CB OVC040 FM192100 24015G25KT P6SM VCTS SCT025CB BKN050

Oct-19@
00:00 UTC

Oct-19 @ 00:00 UTC

Oct-19@
06:00 UTC

Oct-19 @ 06:00 UTC

KSRQ 182331Z 1900/1924 11008KT P6SM RA VCTS SCT025CB BKN050 OVC120
Wind
  • 110° at 8 KTS
Conditions
Rain, Area Thunderstorm
Cloud Levels
  • Scattered at 2,500' AGL
  • Broken at 5,000' AGL
  • Overcast at 12,000' AGL

Oct-19@
06:00 UTC

Oct-19 @ 06:00 UTC

Oct-19@
14:00 UTC

Oct-19 @ 14:00 UTC

FM190600 14012G20KT 5SM RA VCTS BKN025CB OVC050

From

From Standard forecast or significant change

Wind
  • 140° at 12 KTS
  • {Gusting to 20 KTS
Conditions
Rain, Area Thunderstorm
Cloud Levels
  • Broken at 2,500' AGL
  • Overcast at 5,000' AGL

Oct-19@
14:00 UTC

Oct-19 @ 14:00 UTC

Oct-19@
21:00 UTC

Oct-19 @ 21:00 UTC

FM191400 20015G25KT P6SM VCTS BKN025CB OVC040

From

From Standard forecast or significant change

Wind
  • 200° at 15 KTS
  • {Gusting to 25 KTS
Conditions
Area Thunderstorm
Cloud Levels
  • Broken at 2,500' AGL
  • Overcast at 4,000' AGL

Oct-19@
21:00 UTC

Oct-19 @ 21:00 UTC

Oct-20@
00:00 UTC

Oct-20 @ 00:00 UTC

FM192100 24015G25KT P6SM VCTS SCT025CB BKN050

From

From Standard forecast or significant change

Wind
  • 240° at 15 KTS
  • {Gusting to 25 KTS
Conditions
Area Thunderstorm
Cloud Levels
  • Scattered at 2,500' AGL
  • Broken at 5,000' AGL